createdAt,value
2023-01-06T00:00:11.874Z,99438.06
2023-01-06T00:02:38.908Z,99472.03
2023-01-06T00:05:06.411Z,99482.28
2023-01-06T00:07:33.248Z,99485.88
2023-01-06T00:10:00.128Z,99482.16
2023-01-06T00:12:27.073Z,99494.22
2023-01-06T00:14:53.969Z,99495.41
2023-01-06T00:17:20.801Z,99466.63
2023-01-06T00:19:48.048Z,99494.22
2023-01-06T00:22:14.876Z,99496.19
2023-01-06T00:24:41.888Z,99489.72
2023-01-06T00:27:08.770Z,99487.84
2023-01-06T00:29:35.751Z,99434.09
2023-01-06T00:32:02.714Z,99513.13
2023-01-06T00:34:29.710Z,99515.91
2023-01-06T00:36:56.601Z,99526.78
2023-01-06T00:39:23.609Z,99521.13
2023-01-06T00:42:06.596Z,99493.38
2023-01-06T00:44:35.182Z,99521.94
2023-01-06T00:47:04.531Z,99526.84
2023-01-06T00:49:31.539Z,99533.91
2023-01-06T00:51:58.432Z,99526.56
2023-01-06T00:54:25.683Z,99541.44
2023-01-06T00:56:54.092Z,99553.09
2023-01-06T00:59:22.735Z,99549.88
2023-01-06T01:01:51.128Z,99547.75
2023-01-06T01:04:18.793Z,99562.13
2023-01-06T01:06:46.454Z,99553.47
2023-01-06T01:09:15.755Z,99557.00
2023-01-06T01:12:00.936Z,99550.81
2023-01-06T01:14:28.100Z,99563.06
2023-01-06T01:16:56.186Z,99557.41
2023-01-06T01:19:23.096Z,99566.13
2023-01-06T01:21:49.935Z,99561.03
2023-01-06T01:24:17.349Z,99552.72
2023-01-06T01:26:44.289Z,99567.13
2023-01-06T01:29:12.589Z,99557.94
2023-01-06T01:31:39.460Z,99558.50
2023-01-06T01:34:06.624Z,99567.53
2023-01-06T01:36:33.575Z,99531.72
2023-01-06T01:39:00.816Z,99567.56
2023-01-06T01:41:28.325Z,99577.66
2023-01-06T01:44:02.257Z,99581.25
2023-01-06T01:46:33.847Z,99554.38
2023-01-06T01:49:03.197Z,99547.44
2023-01-06T01:51:32.520Z,99588.16
2023-01-06T01:54:01.843Z,99585.28
2023-01-06T01:56:30.588Z,99586.09
2023-01-06T01:59:00.046Z,99522.22
2023-01-06T02:01:27.152Z,99578.03
2023-01-06T02:03:54.145Z,99582.44
2023-01-06T02:06:21.821Z,99586.50
2023-01-06T02:09:01.879Z,99589.44
2023-01-06T02:11:30.003Z,99548.19
2023-01-06T02:14:07.865Z,99583.00
2023-01-06T02:16:56.231Z,99579.22
2023-01-06T02:20:00.487Z,99585.75
2023-01-06T02:23:01.700Z,99592.03
2023-01-06T02:25:49.751Z,99590.69
2023-01-06T02:28:37.310Z,99590.94
2023-01-06T02:31:28.411Z,99585.59
2023-01-06T02:34:07.404Z,99589.66
2023-01-06T02:37:05.165Z,99590.22
2023-01-06T02:39:43.979Z,99585.31
2023-01-06T02:42:19.542Z,99580.47
2023-01-06T02:44:55.873Z,99581.56
2023-01-06T02:47:32.982Z,99588.88
2023-01-06T02:50:20.153Z,99585.31
2023-01-06T02:52:54.551Z,99588.88
2023-01-06T02:55:29.460Z,99595.63
2023-01-06T02:58:02.012Z,99589.66
2023-01-06T03:00:28.875Z,99591.25
2023-01-06T03:03:05.004Z,99589.66
2023-01-06T03:05:33.165Z,99590.22
2023-01-06T03:08:02.423Z,99526.44
2023-01-06T03:10:29.928Z,99593.94
2023-01-06T03:13:01.677Z,99583.38
2023-01-06T03:15:29.172Z,99592.50
2023-01-06T03:17:56.056Z,99601.16
2023-01-06T03:20:22.966Z,99597.47
2023-01-06T03:22:49.817Z,99596.16
2023-01-06T03:25:16.839Z,99599.13
2023-01-06T03:27:44.335Z,99593.78
2023-01-06T03:30:11.724Z,99600.31
2023-01-06T03:32:51.116Z,99609.31
2023-01-06T03:35:48.265Z,99593.88
2023-01-06T03:38:18.415Z,99604.88
2023-01-06T03:41:01.645Z,99608.06
2023-01-06T03:43:36.399Z,99605.13
2023-01-06T03:46:40.164Z,99596.44
2023-01-06T03:49:09.177Z,99572.75
2023-01-06T03:51:48.222Z,99612.72
2023-01-06T03:54:22.691Z,99610.63
2023-01-06T03:56:52.604Z,99566.44
2023-01-06T03:59:21.792Z,99605.63
2023-01-06T04:01:50.597Z,99607.06
2023-01-06T04:04:19.361Z,99568.53
2023-01-06T04:06:47.006Z,99598.69
2023-01-06T04:09:14.327Z,99594.59
2023-01-06T04:12:01.814Z,99603.53
2023-01-06T04:14:30.761Z,99598.50
2023-01-06T04:16:59.624Z,99598.53
2023-01-06T04:19:27.825Z,99601.16
2023-01-06T04:21:54.771Z,99593.00
2023-01-06T04:24:21.656Z,99603.34
2023-01-06T04:26:48.586Z,99599.69
2023-01-06T04:29:15.934Z,99608.03
2023-01-06T04:31:42.961Z,99602.31
2023-01-06T04:34:09.899Z,99604.25
2023-01-06T04:36:36.823Z,99608.31
2023-01-06T04:39:04.170Z,99564.38
2023-01-06T04:41:32.228Z,99589.34
2023-01-06T04:43:59.320Z,99609.28
2023-01-06T04:46:26.369Z,99608.66
2023-01-06T04:48:53.467Z,99606.91
2023-01-06T04:51:20.686Z,99601.41
2023-01-06T04:53:47.868Z,99571.63
2023-01-06T04:56:14.839Z,99614.09
2023-01-06T04:58:41.907Z,99612.91
2023-01-06T05:01:10.993Z,99598.16
2023-01-06T05:03:38.772Z,99616.09
2023-01-06T05:06:10.069Z,99625.72
2023-01-06T05:08:38.285Z,99618.38
2023-01-06T05:11:16.247Z,99610.91
2023-01-06T05:13:43.285Z,99554.63
2023-01-06T05:16:17.396Z,99617.38
2023-01-06T05:18:44.472Z,99609.91
2023-01-06T05:21:11.594Z,99614.38
2023-01-06T05:23:38.643Z,99611.25
2023-01-06T05:26:05.836Z,99614.97
2023-01-06T05:28:32.896Z,99610.69
2023-01-06T05:31:03.840Z,99577.09
2023-01-06T05:33:33.808Z,99625.75
2023-01-06T05:36:01.603Z,99623.53
2023-01-06T05:38:28.908Z,99629.06
2023-01-06T05:40:56.992Z,99622.75
2023-01-06T05:43:24.798Z,99625.91
2023-01-06T05:45:52.601Z,99636.91
2023-01-06T05:48:19.988Z,99644.38
2023-01-06T05:50:47.103Z,99643.34
2023-01-06T05:53:14.012Z,99622.09
2023-01-06T05:55:40.946Z,99649.97
2023-01-06T05:58:07.974Z,99651.84
2023-01-06T06:00:35.056Z,99641.84
2023-01-06T06:03:02.195Z,99649.09
2023-01-06T06:05:29.134Z,99649.34
2023-01-06T06:07:56.418Z,99645.22
2023-01-06T06:10:23.477Z,99647.75
2023-01-06T06:12:53.267Z,99650.50
2023-01-06T06:15:20.141Z,99649.13
2023-01-06T06:17:47.084Z,99654.53
2023-01-06T06:20:13.978Z,99620.59
2023-01-06T06:22:41.049Z,99647.44
2023-01-06T06:25:09.053Z,99641.25
2023-01-06T06:27:38.509Z,99647.41
2023-01-06T06:30:07.038Z,99631.38
2023-01-06T06:32:34.065Z,99655.78
2023-01-06T06:35:01.135Z,99649.47
2023-01-06T06:37:29.476Z,99654.41
2023-01-06T06:39:56.368Z,99651.75
2023-01-06T06:42:23.241Z,99655.66
2023-01-06T06:44:52.099Z,99642.38
2023-01-06T06:47:19.409Z,99642.94
2023-01-06T06:49:46.311Z,99651.28
2023-01-06T06:52:13.430Z,99651.28
2023-01-06T06:54:40.619Z,99649.66
2023-01-06T06:57:07.718Z,99628.16
2023-01-06T06:59:34.681Z,99649.13
2023-01-06T07:02:01.971Z,99648.19
2023-01-06T07:04:29.207Z,99652.56
2023-01-06T07:06:56.534Z,99630.94
2023-01-06T07:09:23.505Z,99663.13
2023-01-06T07:11:50.407Z,99668.25
2023-01-06T07:14:17.331Z,99665.88
2023-01-06T07:16:44.306Z,99667.78
2023-01-06T07:19:11.205Z,99678.13
2023-01-06T07:21:38.489Z,99673.88
2023-01-06T07:24:06.302Z,99680.53
2023-01-06T07:26:33.283Z,99689.25
2023-01-06T07:29:00.283Z,99687.19
2023-01-06T07:31:27.390Z,99689.81
2023-01-06T07:33:54.326Z,99704.81
2023-01-06T07:36:21.400Z,99688.31
2023-01-06T07:38:48.322Z,99697.94
2023-01-06T07:41:15.298Z,99695.91
2023-01-06T07:43:42.263Z,99685.69
2023-01-06T07:46:09.583Z,99673.41
2023-01-06T07:48:37.418Z,99673.88
2023-01-06T07:51:04.466Z,99682.25
2023-01-06T07:53:31.548Z,99686.94
2023-01-06T07:55:58.491Z,99690.03
2023-01-06T07:58:25.522Z,99690.50
2023-01-06T08:00:52.626Z,99670.75
2023-01-06T08:03:19.767Z,99687.06
2023-01-06T08:05:46.714Z,99694.03
2023-01-06T08:08:13.709Z,99694.84
2023-01-06T08:10:41.261Z,99666.41
2023-01-06T08:13:08.980Z,99698.53
2023-01-06T08:15:36.962Z,99698.16
2023-01-06T08:18:04.133Z,99704.81
2023-01-06T08:20:31.072Z,99709.63
2023-01-06T08:22:58.296Z,99711.22
2023-01-06T08:25:25.231Z,99708.03
2023-01-06T08:27:52.327Z,99704.34
2023-01-06T08:30:21.894Z,99702.88
2023-01-06T08:32:49.086Z,99669.28
2023-01-06T08:35:16.166Z,99662.59
2023-01-06T08:37:43.279Z,99670.19
2023-01-06T08:40:10.725Z,99688.41
2023-01-06T08:42:37.718Z,99694.72
2023-01-06T08:45:04.981Z,99699.88
2023-01-06T08:47:31.973Z,99690.00
2023-01-06T08:49:58.965Z,99680.94
2023-01-06T08:52:25.991Z,99681.41
2023-01-06T08:54:53.110Z,99663.44
2023-01-06T08:57:20.060Z,99680.63
2023-01-06T08:59:47.653Z,99675.44
2023-01-06T09:02:14.619Z,99681.41
2023-01-06T09:04:41.697Z,99684.63
2023-01-06T09:07:08.758Z,99686.91
2023-01-06T09:09:35.701Z,99664.25
2023-01-06T09:12:02.667Z,99680.38
2023-01-06T09:14:29.888Z,99677.50
2023-01-06T09:16:56.903Z,99665.41
2023-01-06T09:19:23.911Z,99683.13
2023-01-06T09:21:50.867Z,99672.06
2023-01-06T09:24:17.890Z,99669.31
2023-01-06T09:26:44.804Z,99658.41
2023-01-06T09:29:11.747Z,99650.50
2023-01-06T09:31:38.665Z,99646.38
2023-01-06T09:34:05.602Z,99622.16
2023-01-06T09:36:34.624Z,99656.69
2023-01-06T09:39:01.594Z,99659.91
2023-01-06T09:41:56.044Z,99647.91
2023-01-06T09:44:41.627Z,99625.03
2023-01-06T09:47:08.584Z,99653.88
2023-01-06T09:49:48.994Z,99605.97
2023-01-06T09:52:34.927Z,99628.75
2023-01-06T09:55:11.703Z,99612.22
2023-01-06T09:57:41.037Z,99593.34
2023-01-06T10:00:32.474Z,99625.84
2023-01-06T10:02:59.510Z,99615.38
2023-01-06T10:05:28.806Z,99610.75
2023-01-06T10:08:29.656Z,99603.28
2023-01-06T10:11:13.120Z,99608.91
2023-01-06T10:14:05.257Z,99598.88
2023-01-06T10:17:36.827Z,99594.97
2023-01-06T10:20:08.660Z,99587.41
2023-01-06T10:23:00.753Z,99585.19
2023-01-06T10:25:33.122Z,99591.25
2023-01-06T10:28:12.327Z,99582.63
2023-01-06T10:30:52.492Z,99576.31
2023-01-06T10:33:27.656Z,99563.25
2023-01-06T10:35:55.558Z,99567.13
2023-01-06T10:38:24.506Z,99564.81
2023-01-06T10:40:51.717Z,99573.09
2023-01-06T10:43:22.659Z,99575.47
2023-01-06T10:45:50.298Z,99540.66
2023-01-06T10:48:22.960Z,99571.81
2023-01-06T10:50:50.057Z,99568.66
2023-01-06T10:53:17.080Z,99567.09
2023-01-06T10:55:47.796Z,99559.38
2023-01-06T10:58:29.985Z,99554.41
2023-01-06T11:01:12.974Z,99546.72
2023-01-06T11:03:43.238Z,99541.75
2023-01-06T11:06:30.850Z,99531.31
2023-01-06T11:08:58.311Z,99526.88
2023-01-06T11:11:29.244Z,99532.13
2023-01-06T11:14:05.712Z,99539.81
2023-01-06T11:16:34.110Z,99528.97
2023-01-06T11:19:03.143Z,99531.81
2023-01-06T11:21:47.282Z,99534.56
2023-01-06T11:24:22.157Z,99531.44
2023-01-06T11:26:58.176Z,99533.22
2023-01-06T11:29:32.914Z,99529.41
2023-01-06T11:32:10.719Z,99536.84
2023-01-06T11:34:37.729Z,99535.41
2023-01-06T11:37:04.660Z,99532.66
2023-01-06T11:39:34.475Z,99536.88
2023-01-06T11:42:09.416Z,99498.53
2023-01-06T11:44:40.474Z,99530.41
2023-01-06T11:47:22.528Z,99533.31
2023-01-06T11:49:50.801Z,99533.41
2023-01-06T11:52:17.646Z,99516.84
2023-01-06T11:54:44.682Z,99505.59
2023-01-06T11:57:17.524Z,99511.53
2023-01-06T12:00:07.092Z,99508.78
2023-01-06T12:02:56.932Z,99502.47
2023-01-06T12:05:35.212Z,99496.91
2023-01-06T12:08:02.363Z,99498.94
2023-01-06T12:10:32.193Z,99495.13
2023-01-06T12:12:59.217Z,99471.97
2023-01-06T12:15:28.164Z,99453.97
2023-01-06T12:18:16.651Z,99488.88
2023-01-06T12:20:44.898Z,99479.88
2023-01-06T12:23:16.250Z,99478.75
2023-01-06T12:25:47.677Z,99472.78
2023-01-06T12:28:34.171Z,99477.56
2023-01-06T12:31:23.116Z,99466.47
2023-01-06T12:34:17.991Z,99481.94
2023-01-06T12:37:12.250Z,99478.16
2023-01-06T12:40:01.350Z,99470.31
2023-01-06T12:42:43.721Z,99467.28
2023-01-06T12:45:32.434Z,99461.34
2023-01-06T12:47:59.826Z,99447.47
2023-01-06T12:50:39.160Z,99391.38
2023-01-06T12:53:27.108Z,99392.69
2023-01-06T12:56:22.970Z,99444.94
2023-01-06T12:59:07.965Z,99438.28
2023-01-06T13:01:51.418Z,99441.72
2023-01-06T13:04:21.279Z,99440.25
2023-01-06T13:06:53.997Z,99445.41
2023-01-06T13:09:21.069Z,99426.63
2023-01-06T13:12:29.202Z,99391.78
2023-01-06T13:15:06.585Z,99421.03
2023-01-06T13:17:48.631Z,99398.63
2023-01-06T13:20:57.158Z,99402.41
2023-01-06T13:23:52.753Z,99383.06
2023-01-06T13:26:41.400Z,99389.41
2023-01-06T13:29:33.198Z,99380.06
2023-01-06T13:32:08.173Z,99344.34
2023-01-06T13:35:02.206Z,99373.72
2023-01-06T13:37:35.046Z,99372.03
2023-01-06T13:40:16.839Z,99389.81
2023-01-06T13:42:49.836Z,99382.72
2023-01-06T13:45:20.615Z,99378.59
2023-01-06T13:47:47.612Z,99374.34
2023-01-06T13:50:15.381Z,99380.16
2023-01-06T13:52:42.313Z,99378.34
2023-01-06T13:55:25.138Z,99377.03
2023-01-06T13:57:52.139Z,99370.09
2023-01-06T14:00:25.367Z,99339.56
2023-01-06T14:02:52.200Z,99366.56
2023-01-06T14:05:22.137Z,99368.72
2023-01-06T14:07:53.750Z,99301.47
2023-01-06T14:10:35.593Z,99344.63
2023-01-06T14:13:03.124Z,99345.97
2023-01-06T14:15:34.034Z,99318.84
2023-01-06T14:18:01.359Z,99362.78
2023-01-06T14:20:30.112Z,99365.69
2023-01-06T14:23:07.832Z,99361.53
2023-01-06T14:25:41.603Z,99360.88
2023-01-06T14:28:34.776Z,99362.28
2023-01-06T14:31:24.584Z,99357.63
2023-01-06T14:33:58.258Z,99355.66
2023-01-06T14:36:25.102Z,99347.28
2023-01-06T14:38:54.313Z,99330.28
2023-01-06T14:41:30.325Z,99369.16
2023-01-06T14:44:02.973Z,99362.69
2023-01-06T14:46:41.316Z,99358.91
2023-01-06T14:49:14.961Z,99353.22
2023-01-06T14:51:41.873Z,99341.19
2023-01-06T14:54:17.985Z,99311.72
2023-01-06T14:56:52.433Z,99336.06
2023-01-06T14:59:21.207Z,99346.03
2023-01-06T15:02:00.939Z,99341.78
2023-01-06T15:04:34.712Z,99341.19
2023-01-06T15:07:02.734Z,99339.00
2023-01-06T15:09:29.656Z,99338.44
2023-01-06T15:11:56.652Z,99344.19
2023-01-06T15:14:33.830Z,99315.69
2023-01-06T15:17:07.021Z,99332.47
2023-01-06T15:19:34.600Z,99319.69
2023-01-06T15:22:01.586Z,99311.09
2023-01-06T15:24:31.666Z,99322.44
2023-01-06T15:27:04.510Z,99319.44
2023-01-06T15:29:31.373Z,99318.84
2023-01-06T15:31:58.214Z,99322.84
2023-01-06T15:34:46.523Z,99325.09
2023-01-06T15:37:35.037Z,99336.94
2023-01-06T15:40:02.215Z,99302.50
2023-01-06T15:42:29.226Z,99326.75
2023-01-06T15:44:59.793Z,99308.88
2023-01-06T15:47:26.545Z,99309.91
2023-01-06T15:49:54.947Z,99311.75
2023-01-06T15:52:21.756Z,99316.63
2023-01-06T15:54:48.609Z,99313.59
2023-01-06T15:57:17.225Z,99328.31
2023-01-06T15:59:57.478Z,99320.97
2023-01-06T16:02:26.310Z,99317.72
2023-01-06T16:04:53.321Z,99330.25
2023-01-06T16:07:37.023Z,99323.19
2023-01-06T16:10:04.203Z,99316.16
2023-01-06T16:12:31.273Z,99295.16
2023-01-06T16:14:58.198Z,99334.25
2023-01-06T16:17:32.410Z,99336.06
2023-01-06T16:20:03.404Z,99328.66
2023-01-06T16:22:48.132Z,99312.31
2023-01-06T16:25:21.139Z,99333.56
2023-01-06T16:27:48.594Z,99297.84
2023-01-06T16:30:18.061Z,99326.06
2023-01-06T16:32:46.848Z,99319.06
2023-01-06T16:35:39.963Z,99322.09
2023-01-06T16:38:08.377Z,99323.78
2023-01-06T16:40:35.290Z,99325.09
2023-01-06T16:43:02.476Z,99320.94
2023-01-06T16:45:34.153Z,99323.84
2023-01-06T16:48:01.089Z,99329.00
2023-01-06T16:50:30.988Z,99320.19
2023-01-06T16:53:10.043Z,99327.13
2023-01-06T16:55:37.678Z,99325.34
2023-01-06T16:58:29.778Z,99337.41
2023-01-06T17:00:58.725Z,99333.22
2023-01-06T17:03:30.345Z,99333.09
2023-01-06T17:05:57.263Z,99308.84
2023-01-06T17:08:37.262Z,99334.03
2023-01-06T17:11:24.273Z,99338.88
2023-01-06T17:13:59.341Z,99337.13
2023-01-06T17:16:29.767Z,99340.81
2023-01-06T17:18:59.627Z,99338.75
2023-01-06T17:21:34.041Z,99310.00
2023-01-06T17:24:12.231Z,99344.34
2023-01-06T17:26:39.263Z,99307.78
2023-01-06T17:29:16.145Z,99338.09
2023-01-06T17:31:44.534Z,99349.03
2023-01-06T17:34:16.406Z,99348.09
2023-01-06T17:36:47.938Z,99349.53
2023-01-06T17:39:19.205Z,99347.75
2023-01-06T17:41:46.143Z,99307.63
2023-01-06T17:44:18.494Z,99349.81
2023-01-06T17:46:46.018Z,99346.16
2023-01-06T17:49:15.931Z,99343.25
2023-01-06T17:51:42.822Z,99348.88
2023-01-06T17:54:35.373Z,99353.84
2023-01-06T17:57:03.121Z,99354.03
2023-01-06T17:59:29.952Z,99354.66
2023-01-06T18:01:56.834Z,99356.41
2023-01-06T18:04:23.791Z,99355.94
2023-01-06T18:06:52.889Z,99352.19
2023-01-06T18:09:23.538Z,99314.91
2023-01-06T18:11:51.297Z,99290.50
2023-01-06T18:14:33.858Z,99357.00
2023-01-06T18:17:25.148Z,99353.94
2023-01-06T18:19:52.023Z,99348.31
2023-01-06T18:22:23.254Z,99316.19
2023-01-06T18:24:50.977Z,99346.88
2023-01-06T18:27:25.180Z,99342.06
2023-01-06T18:29:52.443Z,99311.66
2023-01-06T18:32:37.993Z,99337.38
2023-01-06T18:35:27.820Z,99306.66
2023-01-06T18:37:54.875Z,99334.63
2023-01-06T18:40:24.105Z,99336.06
2023-01-06T18:42:51.792Z,99344.88
2023-01-06T18:45:24.407Z,99342.78
2023-01-06T18:47:55.492Z,99347.22
2023-01-06T18:50:26.611Z,99354.16
2023-01-06T18:52:54.252Z,99343.03
2023-01-06T18:55:26.868Z,99351.38
2023-01-06T18:58:01.671Z,99349.59
2023-01-06T19:00:40.874Z,99348.44
2023-01-06T19:04:03.401Z,99351.94
2023-01-06T19:06:57.188Z,99349.34
2023-01-06T19:09:36.700Z,99351.56
2023-01-06T19:12:09.450Z,99356.53
2023-01-06T19:14:38.731Z,99346.72
2023-01-06T19:17:23.406Z,99280.78
2023-01-06T19:19:52.550Z,99341.72
2023-01-06T19:22:23.053Z,99339.47
2023-01-06T19:24:58.383Z,99347.94
2023-01-06T19:27:37.557Z,99344.75
2023-01-06T19:30:13.564Z,99353.72
2023-01-06T19:32:40.398Z,99357.06
2023-01-06T19:35:27.100Z,99326.69
2023-01-06T19:37:59.467Z,99347.91
2023-01-06T19:40:28.102Z,99353.69
2023-01-06T19:43:15.916Z,99355.91
2023-01-06T19:45:42.914Z,99313.28
2023-01-06T19:48:30.534Z,99322.75
2023-01-06T19:51:08.568Z,99351.19
2023-01-06T19:53:42.019Z,99349.09
2023-01-06T19:56:20.082Z,99324.28
2023-01-06T19:58:53.428Z,99330.69
2023-01-06T20:01:21.572Z,99365.59
2023-01-06T20:03:48.866Z,99282.03
2023-01-06T20:06:16.435Z,99339.75
2023-01-06T20:08:43.786Z,99372.25
2023-01-06T20:11:11.150Z,99375.56
2023-01-06T20:13:37.989Z,99370.75
2023-01-06T20:16:05.433Z,99379.25
2023-01-06T20:18:32.465Z,99383.09
2023-01-06T20:20:59.296Z,99385.31
2023-01-06T20:23:26.248Z,99390.25
2023-01-06T20:25:53.113Z,99350.03
2023-01-06T20:28:19.975Z,99391.97
2023-01-06T20:30:47.093Z,99386.34
2023-01-06T20:33:14.117Z,99403.31
2023-01-06T20:35:41.081Z,99396.84
2023-01-06T20:38:07.982Z,99398.75
2023-01-06T20:40:34.861Z,99409.16
2023-01-06T20:43:01.700Z,99412.19
2023-01-06T20:45:28.595Z,99420.16
2023-01-06T20:47:55.454Z,99385.63
2023-01-06T20:50:22.349Z,99401.84
2023-01-06T20:52:49.231Z,99433.69
2023-01-06T20:55:16.149Z,99392.59
2023-01-06T20:57:42.992Z,99423.69
2023-01-06T21:00:11.041Z,99421.78
2023-01-06T21:02:38.346Z,99431.56
2023-01-06T21:05:06.162Z,99444.66
2023-01-06T21:07:33.986Z,99438.44
2023-01-06T21:10:00.944Z,99443.06
2023-01-06T21:12:27.772Z,99445.28
2023-01-06T21:14:54.717Z,99445.56
2023-01-06T21:17:21.702Z,99447.47
2023-01-06T21:19:48.551Z,99439.22
2023-01-06T21:22:15.469Z,99447.28
2023-01-06T21:24:42.572Z,99463.09
2023-01-06T21:27:09.412Z,99464.50
2023-01-06T21:29:36.344Z,99458.59
2023-01-06T21:32:03.305Z,99469.47
2023-01-06T21:34:30.144Z,99462.19
2023-01-06T21:36:57.084Z,99423.78
2023-01-06T21:39:23.936Z,99469.03
2023-01-06T21:42:09.515Z,99460.97
2023-01-06T21:44:36.404Z,99460.97
2023-01-06T21:47:03.929Z,99461.59
2023-01-06T21:49:31.107Z,99463.78
2023-01-06T21:51:58.250Z,99463.78
2023-01-06T21:54:25.096Z,99466.78
2023-01-06T21:56:52.030Z,99467.41
2023-01-06T21:59:18.913Z,99467.72
2023-01-06T22:01:45.856Z,99481.59
2023-01-06T22:04:12.823Z,99485.44
2023-01-06T22:06:40.722Z,99488.56
2023-01-06T22:09:08.174Z,99489.16
2023-01-06T22:11:35.474Z,99432.13
2023-01-06T22:14:02.330Z,99489.44
2023-01-06T22:16:29.243Z,99484.31
2023-01-06T22:18:57.374Z,99454.78
2023-01-06T22:21:24.986Z,99494.97
2023-01-06T22:23:51.854Z,99465.66
2023-01-06T22:26:18.734Z,99485.50
2023-01-06T22:28:45.659Z,99478.53
2023-01-06T22:31:12.540Z,99479.84
2023-01-06T22:33:39.573Z,99485.09
2023-01-06T22:36:07.160Z,99469.84
2023-01-06T22:38:34.013Z,99478.63
2023-01-06T22:41:00.915Z,99480.25
2023-01-06T22:43:27.774Z,99489.19
2023-01-06T22:45:56.597Z,99449.09
2023-01-06T22:48:24.144Z,99487.59
2023-01-06T22:51:03.963Z,99491.19
2023-01-06T22:53:31.573Z,99466.50
2023-01-06T22:55:58.960Z,99497.44
2023-01-06T22:58:25.995Z,99467.31
2023-01-06T23:00:52.967Z,99505.09
2023-01-06T23:03:20.329Z,99502.66
2023-01-06T23:06:01.713Z,99499.13
2023-01-06T23:08:29.550Z,99466.88
2023-01-06T23:11:03.686Z,99498.13
2023-01-06T23:13:30.650Z,99500.06
2023-01-06T23:16:17.704Z,99500.34
2023-01-06T23:18:46.060Z,99502.84
2023-01-06T23:21:14.975Z,99506.97
2023-01-06T23:23:42.102Z,99505.34
2023-01-06T23:26:13.824Z,99501.00
2023-01-06T23:28:40.860Z,99475.28
2023-01-06T23:31:08.766Z,99510.06
2023-01-06T23:33:45.871Z,99517.41
2023-01-06T23:36:13.825Z,99511.53
2023-01-06T23:38:40.787Z,99481.38
2023-01-06T23:41:10.440Z,99509.59
2023-01-06T23:43:37.655Z,99511.84
2023-01-06T23:46:11.968Z,99509.72
2023-01-06T23:48:39.060Z,99517.34
2023-01-06T23:51:06.712Z,99507.59
2023-01-06T23:53:33.738Z,99511.69
2023-01-06T23:56:01.642Z,99508.47
2023-01-06T23:58:29.475Z,99508.75
